»·PEaware :: DAL3571 KBOI-KSEA

DAL3571 :: KBOI-KSEA

FLIGHT INFORMATION

Flight Status: Arrived
Operator:
Delta Air Lines
More flights by this operator :: More flights under this callsign
Pilot: James W. (12414)
Aircraft: BOEING 737-800
(B738)
More flights by this aircraft type
Origin: KBOI Boise Air Terminal/Gowen
United States
Destination: KSEA Seattle-Tacoma Intl
United States
More flights between these airports :: More routes between these airports
Route: +BOI3 OLAAH DCT PREIS DCT PDT CHINS4
File this flight plan on PilotEdge
Remarks:
Altitude:
(Current/Filed)
36,000ft
Speed:
(Current/Filed)
450kts
Departed: 29-Apr-20 05:14 PM
Arrived: 29-Apr-20 06:27 PM
Distance/Time
Traveled:
345nm/1:13
Distance/Time
To Go:
Arrived

Flight Plot

Page will automatically refresh every two minutes.


Map Options




Map Legend


Flown Route
Filed Route
Departure Airport
Arrival Airport
Navaid (VOR, NDB)
Fix

Horizontal Profiles

Position Reports

Time Latitude Longitude Heading Altitude Ground
Speed
29-Apr-20 16:44 43.567760 -116.219063 205 2879ft 0kts
29-Apr-20 16:44 43.567760 -116.219063 205 2879ft 0kts
29-Apr-20 16:45 43.567760 -116.219063 205 2879ft 0kts
29-Apr-20 16:47 43.567760 -116.219063 205 2879ft 0kts
29-Apr-20 16:47 43.567760 -116.219063 205 2879ft 0kts
29-Apr-20 16:48 43.567760 -116.219063 205 2879ft 0kts
29-Apr-20 16:49 43.567760 -116.219063 205 2879ft 0kts
29-Apr-20 16:50 43.567760 -116.219063 205 2879ft 0kts
29-Apr-20 16:51 43.567760 -116.219063 205 2879ft 0kts
29-Apr-20 16:52 43.567760 -116.219063 205 2879ft 0kts
29-Apr-20 16:53 43.567760 -116.219063 205 2879ft 0kts
29-Apr-20 16:54 43.567760 -116.219063 205 2879ft 0kts
29-Apr-20 16:55 43.567760 -116.219063 205 2879ft 0kts
29-Apr-20 16:56 43.567760 -116.219063 205 2879ft 0kts
29-Apr-20 16:57 43.567760 -116.219063 205 2879ft 0kts
29-Apr-20 16:58 43.567760 -116.219063 205 2879ft 0kts
29-Apr-20 16:59 43.567760 -116.219063 205 2879ft 0kts
29-Apr-20 17:00 43.567760 -116.219063 205 2879ft 0kts
29-Apr-20 17:01 43.567760 -116.219063 205 2879ft 0kts
29-Apr-20 17:02 43.567760 -116.219063 205 2879ft 0kts
29-Apr-20 17:03 43.567760 -116.219063 205 2879ft 0kts
29-Apr-20 17:04 43.567760 -116.219063 205 2879ft 0kts
29-Apr-20 17:05 43.567760 -116.219063 205 2879ft 0kts
29-Apr-20 17:06 43.568133 -116.218871 141 2879ft 1kts
29-Apr-20 17:07 43.568170 -116.218908 148 2878ft 0kts
29-Apr-20 17:08 43.567725 -116.217701 135 2879ft 13kts
29-Apr-20 17:09 43.566305 -116.221909 289 2879ft 21kts
29-Apr-20 17:10 43.569155 -116.230316 294 2879ft 25kts
29-Apr-20 17:11 43.570951 -116.236095 242 2878ft 0kts
29-Apr-20 17:12 43.569778 -116.235631 114 2879ft 18kts
29-Apr-20 17:13 43.554469 -116.187541 109 3638ft 206kts
29-Apr-20 17:14 43.542948 -116.099419 111 5319ft 251kts
29-Apr-20 17:15 43.521178 -116.005902 93 7709ft 268kts
29-Apr-20 17:16 43.569313 -115.925474 11 10226ft 313kts
29-Apr-20 17:17 43.646470 -115.969579 308 12729ft 324kts
29-Apr-20 17:18 43.712593 -116.073592 308 13756ft 392kts
29-Apr-20 17:19 43.787270 -116.191714 307 15824ft 414kts
29-Apr-20 17:20 43.864133 -116.313713 306 18104ft 425kts
29-Apr-20 17:21 43.942996 -116.439417 306 20256ft 435kts
29-Apr-20 17:22 44.023734 -116.568662 305 22273ft 445kts
29-Apr-20 17:23 44.104575 -116.696935 310 24196ft 458kts
29-Apr-20 17:24 44.203752 -116.810784 309 25984ft 466kts
29-Apr-20 17:25 44.296232 -116.937511 308 28192ft 462kts
29-Apr-20 17:26 44.386982 -117.062501 306 30463ft 454kts
29-Apr-20 17:27 44.478666 -117.189439 306 31747ft 466kts
29-Apr-20 17:28 44.570249 -117.316715 306 33475ft 462kts
29-Apr-20 17:29 44.661023 -117.443510 305 35105ft 457kts
29-Apr-20 17:30 44.749301 -117.567372 305 35974ft 452kts
29-Apr-20 17:31 44.837068 -117.691139 304 35988ft 448kts
29-Apr-20 17:32 44.925839 -117.816856 305 35987ft 448kts
29-Apr-20 17:33 45.013880 -117.942101 304 35980ft 449kts
29-Apr-20 17:34 45.101303 -118.067039 303 35963ft 448kts
29-Apr-20 17:35 45.188153 -118.191738 303 35938ft 447kts
29-Apr-20 17:36 45.275660 -118.317931 303 35937ft 447kts
29-Apr-20 17:37 45.363147 -118.444673 303 35933ft 446kts
29-Apr-20 17:38 45.450711 -118.572133 303 35937ft 447kts
29-Apr-20 17:39 45.534412 -118.694595 303 35948ft 446kts
29-Apr-20 17:40 45.621179 -118.822149 303 35565ft 448kts
29-Apr-20 17:41 45.706120 -118.948937 298 33669ft 437kts
29-Apr-20 17:42 45.784424 -119.083684 299 32218ft 446kts
29-Apr-20 17:43 45.864738 -119.219498 300 30745ft 451kts
29-Apr-20 17:44 45.946085 -119.357788 300 29259ft 454kts
29-Apr-20 17:45 46.028186 -119.498095 301 27770ft 458kts
29-Apr-20 17:46 46.110096 -119.638781 301 26280ft 462kts
29-Apr-20 17:47 46.178334 -119.756592 301 25037ft 471kts
29-Apr-20 17:48 46.260417 -119.899643 301 23889ft 430kts
29-Apr-20 17:49 46.334628 -120.029444 301 23907ft 417kts
29-Apr-20 17:50 46.409099 -120.159846 301 23905ft 417kts
29-Apr-20 17:51 46.483295 -120.290369 301 23906ft 417kts
29-Apr-20 17:52 46.556819 -120.420345 301 23557ft 419kts
29-Apr-20 17:53 46.622887 -120.554346 297 22023ft 402kts
29-Apr-20 17:54 46.684766 -120.684089 296 20540ft 393kts
29-Apr-20 17:55 46.743828 -120.808454 297 19122ft 386kts
29-Apr-20 17:56 46.803695 -120.935023 297 17651ft 378kts
29-Apr-20 17:57 46.862829 -121.061244 298 16157ft 371kts
29-Apr-20 17:58 46.917486 -121.177784 297 15933ft 334kts
29-Apr-20 17:59 46.970069 -121.290568 297 15955ft 338kts
29-Apr-20 18:00 47.023013 -121.404474 296 15994ft 342kts
29-Apr-20 18:01 47.076102 -121.519146 296 16004ft 343kts
29-Apr-20 18:02 47.127178 -121.630521 297 15181ft 336kts
29-Apr-20 18:03 47.176101 -121.737017 296 14073ft 309kts
29-Apr-20 18:04 47.222658 -121.839070 296 12986ft 305kts
29-Apr-20 18:05 47.268498 -121.939802 296 12016ft 298kts
29-Apr-20 18:06 47.312460 -122.036654 296 11976ft 300kts
29-Apr-20 18:07 47.362018 -122.121224 330 11667ft 324kts
29-Apr-20 18:08 47.444217 -122.128642 0 9839ft 340kts
29-Apr-20 18:09 47.525376 -122.122130 0 7980ft 325kts
29-Apr-20 18:10 47.604647 -122.115751 0 6095ft 305kts
29-Apr-20 18:11 47.676867 -122.109359 0 5967ft 243kts
29-Apr-20 18:12 47.740157 -122.104224 350 5953ft 220kts
29-Apr-20 18:13 47.778114 -122.156281 294 5991ft 199kts
29-Apr-20 18:14 47.807468 -122.221954 296 5984ft 198kts
29-Apr-20 18:15 47.831630 -122.294450 251 5982ft 182kts
29-Apr-20 18:16 47.793703 -122.315587 174 5998ft 176kts
29-Apr-20 18:17 47.748533 -122.308833 181 5941ft 160kts
29-Apr-20 18:18 47.710546 -122.308068 187 5374ft 146kts
29-Apr-20 18:19 47.672205 -122.308812 187 4630ft 148kts
29-Apr-20 18:20 47.634434 -122.308706 185 3826ft 146kts
29-Apr-20 18:21 47.597442 -122.309070 185 3029ft 148kts
29-Apr-20 18:22 47.560111 -122.310224 186 2275ft 147kts
29-Apr-20 18:23 47.522747 -122.309740 185 1633ft 149kts
29-Apr-20 18:24 47.484949 -122.310578 184 879ft 146kts
29-Apr-20 18:25 47.450891 -122.311113 182 441ft 65kts
29-Apr-20 18:27 47.444127 -122.306294 187 441ft 29kts
29-Apr-20 18:28 47.440137 -122.303873 16 441ft 13kts

Navigation Log

Ident Type
Flight plan parsing failed, navigation log unavailable